createdAt,value
2018-04-16T11:42:30.133Z,16.88
2018-04-16T11:43:29.968Z,22.50
2018-04-16T11:44:29.953Z,22.50
2018-04-16T11:45:29.946Z,22.50
2018-04-16T11:46:29.938Z,22.50
2018-04-16T11:47:30.088Z,16.88
2018-04-16T11:48:29.940Z,16.88
2018-04-16T11:49:29.895Z,22.50
2018-04-16T11:50:29.886Z,16.88
2018-04-16T11:51:29.876Z,11.25
2018-04-16T11:52:29.868Z,11.25
2018-04-16T11:53:29.858Z,11.25
2018-04-16T11:54:29.849Z,16.88
2018-04-16T11:55:29.840Z,16.88
2018-04-16T11:56:29.829Z,16.88
2018-04-16T11:57:29.825Z,22.50
2018-04-16T11:58:29.818Z,22.50
2018-04-16T11:59:29.812Z,22.50
2018-04-16T12:00:29.798Z,28.13
2018-04-16T12:01:29.790Z,33.75
2018-04-16T12:02:29.781Z,33.75
2018-04-16T12:03:29.776Z,33.75
2018-04-16T12:04:29.812Z,33.75
2018-04-16T12:05:29.758Z,28.13
2018-04-16T12:06:29.750Z,28.13
2018-04-16T12:07:29.742Z,33.75
2018-04-16T12:08:29.734Z,39.38
2018-04-16T12:09:29.726Z,39.38
2018-04-16T12:10:29.725Z,45.00
2018-04-16T12:11:29.717Z,45.00
2018-04-16T12:12:29.711Z,39.38
2018-04-16T12:13:29.702Z,22.50
2018-04-16T12:14:29.695Z,16.88
2018-04-16T12:15:29.688Z,11.25
2018-04-16T12:16:29.680Z,11.25
2018-04-16T12:17:29.673Z,5.63
2018-04-16T12:18:29.666Z,5.63
2018-04-16T12:19:29.659Z,5.63
2018-04-16T12:20:29.651Z,5.63
2018-04-16T12:21:29.647Z,5.63
2018-04-16T12:22:29.638Z,5.63
2018-04-16T12:23:29.630Z,5.63
2018-04-16T12:24:29.623Z,5.63
2018-04-16T12:25:29.616Z,11.25
2018-04-16T12:26:29.608Z,5.63
2018-04-16T12:27:29.639Z,11.25
2018-04-16T12:28:29.594Z,5.63
2018-04-16T12:29:29.588Z,5.63
2018-04-16T12:30:29.578Z,5.63
2018-04-16T12:31:29.580Z,11.25
2018-04-16T12:32:29.565Z,16.88
2018-04-16T12:33:29.556Z,22.50
2018-04-16T12:34:29.549Z,22.50
2018-04-16T12:35:29.542Z,22.50
2018-04-16T12:36:29.533Z,28.13
2018-04-16T12:37:29.526Z,28.13
2018-04-16T12:38:29.518Z,28.13
2018-04-16T12:39:29.511Z,28.13
2018-04-16T12:40:29.503Z,33.75
2018-04-16T12:41:29.496Z,33.75
2018-04-16T12:42:29.488Z,33.75
2018-04-16T12:43:29.480Z,39.38
2018-04-16T12:44:29.470Z,39.38
2018-04-16T12:45:29.468Z,39.38
2018-04-16T12:46:29.457Z,39.38
2018-04-16T12:47:29.450Z,39.38
2018-04-16T12:48:29.440Z,45.00
2018-04-16T12:49:29.433Z,45.00
2018-04-16T12:50:29.424Z,45.00
2018-04-16T12:51:29.419Z,45.00
2018-04-16T12:52:29.410Z,45.00
2018-04-16T12:53:29.404Z,45.00
2018-04-16T12:54:29.396Z,45.00
2018-04-16T12:55:29.389Z,45.00
2018-04-16T12:56:29.381Z,45.00
2018-04-16T12:57:29.374Z,45.00
2018-04-16T12:58:29.366Z,45.00
2018-04-16T12:59:29.361Z,45.00
2018-04-16T13:00:29.352Z,45.00
2018-04-16T13:01:29.401Z,45.00
2018-04-16T13:02:29.338Z,45.00
2018-04-16T13:03:29.331Z,45.00
2018-04-16T13:04:29.424Z,45.00
2018-04-16T13:05:29.316Z,45.00
2018-04-16T13:06:29.310Z,39.38
2018-04-16T13:07:29.303Z,45.00
2018-04-16T13:08:29.295Z,45.00
2018-04-16T13:09:29.289Z,45.00
2018-04-16T13:10:29.283Z,45.00
2018-04-16T13:11:29.275Z,45.00
2018-04-16T13:12:29.268Z,50.63
2018-04-16T13:13:29.261Z,56.25
2018-04-16T13:14:29.255Z,61.88
2018-04-16T13:15:29.251Z,61.88
2018-04-16T13:16:29.240Z,61.88
2018-04-16T13:17:29.236Z,61.88
2018-04-16T13:18:29.227Z,61.88
2018-04-16T13:19:29.219Z,56.25
2018-04-16T13:20:29.213Z,61.88
2018-04-16T13:21:29.207Z,61.88
2018-04-16T13:22:29.200Z,50.63
2018-04-16T13:23:29.195Z,50.63
2018-04-16T13:24:29.187Z,45.00
2018-04-16T13:25:29.182Z,45.00
2018-04-16T13:26:29.175Z,39.38
2018-04-16T13:27:29.169Z,33.75
2018-04-16T13:28:29.162Z,33.75
2018-04-16T13:29:29.161Z,33.75
2018-04-16T13:30:29.153Z,39.38
2018-04-16T13:31:29.144Z,45.00
2018-04-16T13:32:29.137Z,45.00
2018-04-16T13:33:29.131Z,50.63
2018-04-16T13:34:29.125Z,45.00
2018-04-16T13:35:29.118Z,45.00
2018-04-16T13:36:29.128Z,45.00
2018-04-16T13:37:29.106Z,45.00
2018-04-16T13:38:29.100Z,56.25
2018-04-16T13:39:29.093Z,56.25
2018-04-16T13:40:29.086Z,56.25
2018-04-16T13:41:29.080Z,56.25
2018-04-16T13:42:29.074Z,50.63
2018-04-16T13:43:29.068Z,50.63
2018-04-16T13:44:29.061Z,45.00
2018-04-16T13:45:29.055Z,45.00
2018-04-16T13:46:29.150Z,45.00
2018-04-16T13:47:29.043Z,45.00
2018-04-16T13:48:29.037Z,50.63
2018-04-16T13:49:29.030Z,61.88
2018-04-16T13:50:29.025Z,67.50
2018-04-16T13:51:29.020Z,50.63
2018-04-16T13:52:29.021Z,50.63
2018-04-16T13:53:29.009Z,45.00
2018-04-16T13:54:29.001Z,45.00
2018-04-16T13:55:29.000Z,45.00
2018-04-16T13:56:28.989Z,45.00
2018-04-16T13:57:28.984Z,50.63
2018-04-16T13:58:28.978Z,73.13
2018-04-16T13:59:28.974Z,73.13
2018-04-16T14:00:28.965Z,78.75
2018-04-16T14:01:28.961Z,73.13
2018-04-16T14:02:28.957Z,73.13
2018-04-16T14:03:28.949Z,67.50
2018-04-16T14:04:28.942Z,61.88
2018-04-16T14:05:28.937Z,78.75
2018-04-16T14:06:28.932Z,67.50
2018-04-16T14:07:28.926Z,61.88
2018-04-16T14:08:28.919Z,61.88
2018-04-16T14:09:28.914Z,56.25
2018-04-16T14:10:29.009Z,56.25
2018-04-16T14:11:28.903Z,56.25
2018-04-16T14:12:28.897Z,50.63
2018-04-16T14:13:28.895Z,50.63
2018-04-16T14:14:28.886Z,45.00
2018-04-16T14:15:28.881Z,45.00
2018-04-16T14:16:28.874Z,45.00
2018-04-16T14:17:28.869Z,45.00
2018-04-16T14:18:28.863Z,45.00
2018-04-16T14:19:28.857Z,45.00
2018-04-16T14:20:28.850Z,45.00
2018-04-16T14:21:28.843Z,45.00
2018-04-16T14:22:28.842Z,45.00
2018-04-16T14:23:28.834Z,45.00
2018-04-16T14:24:28.829Z,45.00
2018-04-16T14:25:28.820Z,45.00
2018-04-16T14:26:28.816Z,45.00
2018-04-16T14:27:28.809Z,45.00
2018-04-16T14:28:28.902Z,45.00
2018-04-16T14:29:28.813Z,45.00
2018-04-16T14:30:28.790Z,45.00
2018-04-16T14:31:28.784Z,45.00
2018-04-16T14:32:28.779Z,45.00
2018-04-16T14:33:28.772Z,45.00
2018-04-16T14:34:28.765Z,50.63
2018-04-16T14:35:28.760Z,50.63
2018-04-16T14:36:28.751Z,50.63
2018-04-16T14:37:28.747Z,50.63
2018-04-16T14:38:28.741Z,50.63
2018-04-16T14:39:28.735Z,50.63
2018-04-16T14:40:28.829Z,50.63
2018-04-16T14:41:28.722Z,56.25
2018-04-16T14:42:28.717Z,56.25
2018-04-16T14:43:28.710Z,56.25
2018-04-16T14:44:28.703Z,50.63
2018-04-16T14:45:28.697Z,56.25
2018-04-16T14:46:28.692Z,61.88
2018-04-16T14:47:28.686Z,67.50
2018-04-16T14:48:28.680Z,67.50
2018-04-16T14:49:28.674Z,61.88
2018-04-16T14:50:28.669Z,61.88
2018-04-16T14:51:28.663Z,61.88
2018-04-16T14:52:28.755Z,56.25
2018-04-16T14:53:28.651Z,50.63
2018-04-16T14:54:28.646Z,61.88
2018-04-16T14:55:28.642Z,67.50
2018-04-16T14:56:28.633Z,61.88
2018-04-16T14:57:28.631Z,56.25
2018-04-16T14:58:28.625Z,56.25
2018-04-16T14:59:28.627Z,61.88
2018-04-16T15:00:28.613Z,61.88
2018-04-16T15:01:28.608Z,61.88
2018-04-16T15:02:28.603Z,56.25
2018-04-16T15:03:28.659Z,56.25
2018-04-16T15:04:28.692Z,50.63
2018-04-16T15:05:28.592Z,50.63
2018-04-16T15:06:28.581Z,45.00
2018-04-16T15:07:28.577Z,50.63
2018-04-16T15:08:28.570Z,50.63
2018-04-16T15:09:28.565Z,45.00
2018-04-16T15:10:28.559Z,45.00
2018-04-16T15:11:28.556Z,45.00
2018-04-16T15:12:28.549Z,45.00
2018-04-16T15:13:28.544Z,56.25
2018-04-16T15:14:28.541Z,56.25
2018-04-16T15:15:28.533Z,56.25
2018-04-16T15:16:28.527Z,50.63
2018-04-16T15:17:28.523Z,50.63
2018-04-16T15:18:28.518Z,56.25
2018-04-16T15:19:28.513Z,61.88
2018-04-16T15:20:28.507Z,61.88
2018-04-16T15:21:28.501Z,56.25
2018-04-16T15:22:28.501Z,56.25
2018-04-16T15:23:28.492Z,56.25
2018-04-16T15:24:28.485Z,50.63
2018-04-16T15:25:28.480Z,50.63
2018-04-16T15:26:28.475Z,50.63
2018-04-16T15:27:28.469Z,50.63
2018-04-16T15:28:28.462Z,50.63
2018-04-16T15:29:28.457Z,50.63
2018-04-16T15:30:28.452Z,50.63
2018-04-16T15:31:28.447Z,45.00
2018-04-16T15:32:28.441Z,45.00
2018-04-16T15:33:28.436Z,50.63
2018-04-16T15:34:28.531Z,45.00
2018-04-16T15:35:28.429Z,45.00
2018-04-16T15:36:28.419Z,45.00
2018-04-16T15:37:28.413Z,39.38
2018-04-16T15:38:28.408Z,45.00
2018-04-16T15:39:28.402Z,45.00
2018-04-16T15:40:28.398Z,45.00
2018-04-16T15:41:28.391Z,45.00
2018-04-16T15:42:28.386Z,50.63
2018-04-16T15:43:28.380Z,45.00
2018-04-16T15:44:28.374Z,45.00
2018-04-16T15:45:28.369Z,45.00
2018-04-16T15:46:28.364Z,50.63
2018-04-16T15:47:28.358Z,50.63
2018-04-16T15:48:28.401Z,45.00
2018-04-16T15:49:28.346Z,45.00
2018-04-16T15:50:28.341Z,50.63
2018-04-16T15:51:28.336Z,50.63
2018-04-16T15:52:28.330Z,45.00
2018-04-16T15:53:28.324Z,33.75
2018-04-16T15:54:28.322Z,39.38
2018-04-16T15:55:28.314Z,33.75
2018-04-16T15:56:28.307Z,39.38
2018-04-16T15:57:28.303Z,33.75
2018-04-16T15:58:28.296Z,33.75
2018-04-16T15:59:28.290Z,33.75
2018-04-16T16:00:28.283Z,33.75
2018-04-16T16:01:28.278Z,22.50
2018-04-16T16:02:28.273Z,22.50
2018-04-16T16:03:28.267Z,22.50
2018-04-16T16:04:28.360Z,22.50
2018-04-16T16:05:28.255Z,16.88
2018-04-16T16:06:28.248Z,16.88
2018-04-16T16:07:28.244Z,16.88
2018-04-16T16:08:28.237Z,16.88
2018-04-16T16:09:28.232Z,11.25
2018-04-16T16:10:28.225Z,11.25
2018-04-16T16:11:28.219Z,11.25
2018-04-16T16:12:28.211Z,16.88
2018-04-16T16:13:28.208Z,16.88
2018-04-16T16:14:28.199Z,16.88
2018-04-16T16:15:28.195Z,16.88
2018-04-16T16:16:28.287Z,16.88
2018-04-16T16:17:28.183Z,16.88
2018-04-16T16:18:28.174Z,16.88
2018-04-16T16:19:28.169Z,16.88
2018-04-16T16:20:28.159Z,16.88
2018-04-16T16:21:28.155Z,16.88
2018-04-16T16:22:28.149Z,16.88
2018-04-16T16:23:28.141Z,16.88
2018-04-16T16:24:28.135Z,22.50
2018-04-16T16:25:28.129Z,22.50
2018-04-16T16:26:28.125Z,16.88
2018-04-16T16:27:28.117Z,16.88
2018-04-16T16:28:28.207Z,16.88
2018-04-16T16:29:28.103Z,11.25
2018-04-16T16:30:28.096Z,11.25
2018-04-16T16:31:28.091Z,11.25
2018-04-16T16:32:28.083Z,11.25
2018-04-16T16:33:28.080Z,11.25
2018-04-16T16:34:28.181Z,11.25
2018-04-16T16:35:28.064Z,5.63
2018-04-16T16:36:28.055Z,5.63
2018-04-16T16:37:28.050Z,0.00
2018-04-16T16:38:28.043Z,5.63
2018-04-16T16:39:28.036Z,5.63
2018-04-16T16:40:28.129Z,5.63
2018-04-16T16:41:28.022Z,5.63
2018-04-16T16:42:28.020Z,5.63
2018-04-16T16:43:28.011Z,5.63
2018-04-16T16:44:28.004Z,11.25
2018-04-16T16:45:27.996Z,11.25
2018-04-16T16:46:28.117Z,11.25
2018-04-16T16:47:27.981Z,11.25
2018-04-16T16:48:27.975Z,11.25
2018-04-16T16:49:27.966Z,11.25
2018-04-16T16:50:27.960Z,11.25
2018-04-16T16:51:27.953Z,16.88
2018-04-16T16:52:27.946Z,16.88
2018-04-16T16:53:27.938Z,16.88
2018-04-16T16:54:27.932Z,22.50
2018-04-16T16:55:27.924Z,22.50
2018-04-16T16:56:27.919Z,28.13
2018-04-16T16:57:27.908Z,28.13
2018-04-16T16:58:27.901Z,28.13
2018-04-16T16:59:27.895Z,28.13
2018-04-16T17:00:27.886Z,33.75
2018-04-16T17:01:27.877Z,33.75
2018-04-16T17:02:27.914Z,33.75
2018-04-16T17:03:27.863Z,33.75
2018-04-16T17:04:27.858Z,39.38
2018-04-16T17:05:27.847Z,33.75
2018-04-16T17:06:27.840Z,39.38
2018-04-16T17:07:27.835Z,39.38
2018-04-16T17:08:27.824Z,39.38
2018-04-16T17:09:27.817Z,39.38
2018-04-16T17:10:27.839Z,45.00
2018-04-16T17:11:27.803Z,45.00
2018-04-16T17:12:27.796Z,45.00
2018-04-16T17:13:27.786Z,39.38
2018-04-16T17:14:27.779Z,39.38
2018-04-16T17:15:27.773Z,39.38
2018-04-16T17:16:27.764Z,39.38
2018-04-16T17:17:27.757Z,33.75
2018-04-16T17:18:27.750Z,33.75
2018-04-16T17:19:27.743Z,28.13
2018-04-16T17:20:27.735Z,22.50
2018-04-16T17:21:27.727Z,22.50
2018-04-16T17:22:27.720Z,22.50
2018-04-16T17:23:27.715Z,22.50
2018-04-16T17:24:27.709Z,22.50
2018-04-16T17:25:27.700Z,28.13
2018-04-16T17:26:27.719Z,28.13
2018-04-16T17:27:27.684Z,22.50
2018-04-16T17:28:27.675Z,22.50
2018-04-16T17:29:27.669Z,22.50
2018-04-16T17:30:27.662Z,11.25
2018-04-16T17:31:27.656Z,11.25
2018-04-16T17:32:27.648Z,11.25
2018-04-16T17:33:27.644Z,16.88
2018-04-16T17:34:27.734Z,16.88
2018-04-16T17:35:27.627Z,16.88
2018-04-16T17:36:27.621Z,16.88
2018-04-16T17:37:27.613Z,22.50
2018-04-16T17:38:27.606Z,22.50
2018-04-16T17:39:27.598Z,28.13
2018-04-16T17:40:27.591Z,28.13
2018-04-16T17:41:27.583Z,33.75
2018-04-16T17:42:27.577Z,33.75
2018-04-16T17:43:27.570Z,33.75
2018-04-16T17:44:27.562Z,39.38
2018-04-16T17:45:27.553Z,39.38
2018-04-16T17:46:27.555Z,39.38
2018-04-16T17:47:27.542Z,39.38
2018-04-16T17:48:27.533Z,39.38
2018-04-16T17:49:27.527Z,39.38
2018-04-16T17:50:27.519Z,39.38
2018-04-16T17:51:27.514Z,45.00
2018-04-16T17:52:27.508Z,45.00
2018-04-16T17:53:27.500Z,45.00
2018-04-16T17:54:27.492Z,45.00
2018-04-16T17:55:27.486Z,45.00
2018-04-16T17:56:27.478Z,45.00
2018-04-16T17:57:27.471Z,45.00
2018-04-16T17:58:27.465Z,39.38
2018-04-16T17:59:27.458Z,45.00
2018-04-16T18:00:27.449Z,45.00
2018-04-16T18:01:27.546Z,45.00
2018-04-16T18:02:27.439Z,45.00
2018-04-16T18:03:27.434Z,39.38
2018-04-16T18:04:27.426Z,33.75
2018-04-16T18:05:27.421Z,33.75
2018-04-16T18:06:27.413Z,28.13
2018-04-16T18:07:27.405Z,28.13
2018-04-16T18:08:27.399Z,28.13
2018-04-16T18:09:27.392Z,28.13
2018-04-16T18:10:27.386Z,28.13
2018-04-16T18:11:27.380Z,28.13
2018-04-16T18:12:27.371Z,22.50
2018-04-16T18:13:27.366Z,22.50
2018-04-16T18:14:27.359Z,22.50
2018-04-16T18:15:27.352Z,22.50
2018-04-16T18:16:27.470Z,22.50
2018-04-16T18:17:27.338Z,22.50
2018-04-16T18:18:27.332Z,22.50
2018-04-16T18:19:27.324Z,22.50
2018-04-16T18:20:27.317Z,22.50
2018-04-16T18:21:27.309Z,22.50
2018-04-16T18:22:27.305Z,22.50
2018-04-16T18:23:27.297Z,22.50
2018-04-16T18:24:27.289Z,28.13
2018-04-16T18:25:27.282Z,28.13
2018-04-16T18:26:27.276Z,28.13
2018-04-16T18:27:27.269Z,22.50
2018-04-16T18:28:27.261Z,22.50
2018-04-16T18:29:27.256Z,22.50
2018-04-16T18:30:27.247Z,22.50
2018-04-16T18:31:27.244Z,22.50
2018-04-16T18:32:27.236Z,22.50
2018-04-16T18:33:27.227Z,22.50
2018-04-16T18:34:27.221Z,22.50
2018-04-16T18:35:27.215Z,22.50
2018-04-16T18:36:27.206Z,22.50
2018-04-16T18:37:27.199Z,22.50
2018-04-16T18:38:27.193Z,22.50
2018-04-16T18:39:27.186Z,22.50
2018-04-16T18:40:27.178Z,22.50
2018-04-16T18:41:27.173Z,22.50
2018-04-16T18:42:27.165Z,16.88
2018-04-16T18:43:27.159Z,16.88
2018-04-16T18:44:27.155Z,16.88
2018-04-16T18:45:27.143Z,16.88
2018-04-16T18:46:27.235Z,16.88
2018-04-16T18:47:27.130Z,16.88
2018-04-16T18:48:27.122Z,16.88
2018-04-16T18:49:27.116Z,16.88
2018-04-16T18:50:27.108Z,16.88
2018-04-16T18:51:27.103Z,16.88
2018-04-16T18:52:27.095Z,16.88
2018-04-16T18:53:27.087Z,16.88
2018-04-16T18:54:27.081Z,16.88
2018-04-16T18:55:27.072Z,16.88
2018-04-16T18:56:27.065Z,16.88
2018-04-16T18:57:27.059Z,16.88
2018-04-16T18:58:27.051Z,16.88
2018-04-16T18:59:27.043Z,16.88
2018-04-16T19:00:27.036Z,16.88
2018-04-16T19:01:27.032Z,16.88
2018-04-16T19:02:27.022Z,16.88
2018-04-16T19:03:27.015Z,16.88
2018-04-16T19:04:27.006Z,11.25
2018-04-16T19:05:27.000Z,11.25
2018-04-16T19:06:26.994Z,11.25
2018-04-16T19:07:27.030Z,11.25
2018-04-16T19:08:26.978Z,16.88
2018-04-16T19:09:26.971Z,16.88
2018-04-16T19:10:26.965Z,16.88
2018-04-16T19:11:26.957Z,16.88
2018-04-16T19:12:26.948Z,16.88
2018-04-16T19:13:26.942Z,16.88
2018-04-16T19:14:26.935Z,16.88
2018-04-16T19:15:26.994Z,22.50
2018-04-16T19:16:26.919Z,22.50
2018-04-16T19:17:26.911Z,22.50
2018-04-16T19:18:26.905Z,16.88
2018-04-16T19:19:26.898Z,16.88
2018-04-16T19:20:26.890Z,16.88
2018-04-16T19:21:26.883Z,16.88
2018-04-16T19:22:26.879Z,16.88
2018-04-16T19:23:26.875Z,16.88
2018-04-16T19:24:26.860Z,11.25
2018-04-16T19:25:26.884Z,11.25
2018-04-16T19:26:26.846Z,11.25
2018-04-16T19:27:26.839Z,11.25
2018-04-16T19:28:26.830Z,11.25
2018-04-16T19:29:26.827Z,11.25
2018-04-16T19:30:26.816Z,11.25
2018-04-16T19:31:26.809Z,11.25
2018-04-16T19:32:26.801Z,5.63
2018-04-16T19:33:26.793Z,5.63
2018-04-16T19:34:26.788Z,5.63
2018-04-16T19:35:26.780Z,5.63
2018-04-16T19:36:26.805Z,5.63
2018-04-16T19:37:26.768Z,5.63
2018-04-16T19:38:26.757Z,5.63
2018-04-16T19:39:26.750Z,5.63
2018-04-16T19:40:26.745Z,5.63
2018-04-16T19:41:26.735Z,5.63
2018-04-16T19:42:26.728Z,5.63
2018-04-16T19:43:26.720Z,5.63
2018-04-16T19:44:26.712Z,5.63
2018-04-16T19:45:26.705Z,5.63
2018-04-16T19:46:26.698Z,5.63
2018-04-16T19:47:26.691Z,5.63
2018-04-16T19:48:26.682Z,5.63
2018-04-16T19:49:26.677Z,5.63
2018-04-16T19:50:26.668Z,5.63
2018-04-16T19:51:26.661Z,5.63
2018-04-16T19:52:26.652Z,5.63
2018-04-16T19:53:26.646Z,5.63
2018-04-16T19:54:26.639Z,5.63
2018-04-16T19:55:26.631Z,5.63
2018-04-16T19:56:26.623Z,5.63
2018-04-16T19:57:26.626Z,5.63
2018-04-16T19:58:26.609Z,5.63
2018-04-16T19:59:26.603Z,5.63
2018-04-16T20:00:26.592Z,5.63
2018-04-16T20:01:26.584Z,5.63
2018-04-16T20:02:26.576Z,0.00
2018-04-16T20:03:26.571Z,0.00
2018-04-16T20:04:26.661Z,0.00
2018-04-16T20:05:26.554Z,0.00
2018-04-16T20:06:26.546Z,0.00
2018-04-16T20:07:26.540Z,0.00
2018-04-16T20:08:26.531Z,0.00
2018-04-16T20:09:26.522Z,0.00
2018-04-16T20:10:26.515Z,0.00
2018-04-16T20:11:26.508Z,0.00
2018-04-16T20:12:26.501Z,0.00
2018-04-16T20:13:26.492Z,0.00
2018-04-16T20:14:26.485Z,0.00
2018-04-16T20:15:26.478Z,5.63
2018-04-16T20:16:26.468Z,0.00
2018-04-16T20:17:26.465Z,0.00
2018-04-16T20:18:26.454Z,0.00
2018-04-16T20:19:26.446Z,0.00
2018-04-16T20:20:26.438Z,0.00
2018-04-16T20:21:26.430Z,0.00
2018-04-16T20:22:26.423Z,0.00
2018-04-16T20:23:26.415Z,0.00
2018-04-16T20:24:26.410Z,0.00
2018-04-16T20:25:26.399Z,0.00
2018-04-16T20:26:26.391Z,0.00
2018-04-16T20:27:26.385Z,0.00
2018-04-16T20:28:26.375Z,0.00
2018-04-16T20:29:26.366Z,0.00
2018-04-16T20:30:26.360Z,0.00
2018-04-16T20:31:26.351Z,0.00
2018-04-16T20:32:26.341Z,0.00
2018-04-16T20:33:26.334Z,0.00
2018-04-16T20:34:26.427Z,0.00
2018-04-16T20:35:26.320Z,0.00
2018-04-16T20:36:26.314Z,0.00
2018-04-16T20:37:26.304Z,0.00
2018-04-16T20:38:26.295Z,0.00
2018-04-16T20:39:26.287Z,0.00
2018-04-16T20:40:26.379Z,0.00
2018-04-16T20:41:26.269Z,0.00
2018-04-16T20:42:26.263Z,0.00
2018-04-16T20:43:26.254Z,0.00
2018-04-16T20:44:26.245Z,0.00
2018-04-16T20:45:26.235Z,0.00
2018-04-16T20:46:26.229Z,0.00
2018-04-16T20:47:26.221Z,0.00
2018-04-16T20:48:26.212Z,0.00
2018-04-16T20:49:26.205Z,0.00
2018-04-16T20:50:26.197Z,0.00
2018-04-16T20:51:26.188Z,0.00
2018-04-16T20:52:26.279Z,0.00
2018-04-16T20:53:26.167Z,0.00
2018-04-16T20:54:26.170Z,0.00
2018-04-16T20:55:26.151Z,0.00
2018-04-16T20:56:26.142Z,0.00
2018-04-16T20:57:26.140Z,0.00
2018-04-16T20:58:26.126Z,0.00
2018-04-16T20:59:26.146Z,0.00
2018-04-16T21:00:26.111Z,0.00
2018-04-16T21:01:26.101Z,0.00
2018-04-16T21:02:26.093Z,0.00
2018-04-16T21:03:26.084Z,0.00
2018-04-16T21:04:26.075Z,0.00
2018-04-16T21:05:26.067Z,0.00
2018-04-16T21:06:26.058Z,0.00
2018-04-16T21:07:26.051Z,0.00
2018-04-16T21:08:26.089Z,0.00
2018-04-16T21:09:26.034Z,0.00
2018-04-16T21:10:26.026Z,0.00
2018-04-16T21:11:26.017Z,0.00
2018-04-16T21:12:26.009Z,0.00
2018-04-16T21:13:26.005Z,0.00
2018-04-16T21:14:25.992Z,0.00
2018-04-16T21:15:25.984Z,0.00
2018-04-16T21:16:25.975Z,0.00
2018-04-16T21:17:25.968Z,0.00
2018-04-16T21:18:25.959Z,0.00
2018-04-16T21:19:25.951Z,0.00
2018-04-16T21:20:25.943Z,0.00
2018-04-16T21:21:25.934Z,0.00
2018-04-16T21:22:25.926Z,0.00
2018-04-16T21:23:25.918Z,0.00
2018-04-16T21:24:25.914Z,0.00
2018-04-16T21:25:25.901Z,0.00
2018-04-16T21:26:25.898Z,0.00
2018-04-16T21:27:25.884Z,0.00
2018-04-16T21:28:25.875Z,0.00
2018-04-16T21:29:25.869Z,0.00
2018-04-16T21:30:25.859Z,0.00
2018-04-16T21:31:25.850Z,0.00
2018-04-16T21:32:25.842Z,0.00
2018-04-16T21:33:25.833Z,0.00
2018-04-16T21:34:25.940Z,0.00
2018-04-16T21:35:25.863Z,0.00
2018-04-16T21:36:25.808Z,0.00
2018-04-16T21:37:25.799Z,0.00
2018-04-16T21:38:25.791Z,0.00
2018-04-16T21:39:25.783Z,0.00
2018-04-16T21:40:25.772Z,0.00
2018-04-16T21:41:25.766Z,0.00
2018-04-16T21:42:25.757Z,0.00
2018-04-16T21:43:25.749Z,0.00
2018-04-16T21:44:25.741Z,0.00
2018-04-16T21:45:25.731Z,0.00
2018-04-16T21:46:25.725Z,0.00
2018-04-16T21:47:25.716Z,0.00
2018-04-16T21:48:25.706Z,0.00
2018-04-16T21:49:25.698Z,0.00
2018-04-16T21:50:25.690Z,0.00
2018-04-16T21:51:25.729Z,0.00
2018-04-16T21:52:25.673Z,0.00
2018-04-16T21:53:25.664Z,0.00
2018-04-16T21:54:25.657Z,0.00
2018-04-16T21:55:25.648Z,0.00
2018-04-16T21:56:25.639Z,0.00
2018-04-16T21:57:25.629Z,0.00
2018-04-16T21:58:25.623Z,0.00
2018-04-16T21:59:25.613Z,0.00
2018-04-16T22:00:25.605Z,0.00
2018-04-16T22:01:25.596Z,0.00
2018-04-16T22:02:25.588Z,0.00
2018-04-16T22:03:25.580Z,0.00
2018-04-16T22:04:25.574Z,0.00
2018-04-16T22:05:25.561Z,0.00
2018-04-16T22:06:25.554Z,0.00
2018-04-16T22:07:25.545Z,0.00
2018-04-16T22:08:25.536Z,0.00
2018-04-16T22:09:25.527Z,0.00
2018-04-16T22:10:25.654Z,0.00
2018-04-16T22:11:25.511Z,0.00
2018-04-16T22:12:25.502Z,0.00
2018-04-16T22:13:25.493Z,0.00
2018-04-16T22:14:25.485Z,0.00
2018-04-16T22:15:25.481Z,0.00
2018-04-16T22:16:25.468Z,0.00
2018-04-16T22:17:25.460Z,0.00
2018-04-16T22:18:25.451Z,0.00
2018-04-16T22:19:25.445Z,0.00
2018-04-16T22:20:25.434Z,0.00
2018-04-16T22:21:25.425Z,0.00
2018-04-16T22:22:25.417Z,0.00
2018-04-16T22:23:25.410Z,0.00
2018-04-16T22:24:25.404Z,0.00
2018-04-16T22:25:25.392Z,0.00
2018-04-16T22:26:25.384Z,0.00
2018-04-16T22:27:25.374Z,0.00
2018-04-16T22:28:25.367Z,0.00
2018-04-16T22:29:25.358Z,0.00
2018-04-16T22:30:25.350Z,0.00
2018-04-16T22:31:25.342Z,0.00
2018-04-16T22:32:25.334Z,0.00
2018-04-16T22:33:25.335Z,0.00
2018-04-16T22:34:25.418Z,0.00
2018-04-16T22:35:25.309Z,0.00
2018-04-16T22:36:25.301Z,0.00
2018-04-16T22:37:25.292Z,0.00
2018-04-16T22:38:25.284Z,0.00
2018-04-16T22:39:25.275Z,0.00
2018-04-16T22:40:25.366Z,0.00
2018-04-16T22:41:25.258Z,0.00
2018-04-16T22:42:25.250Z,0.00
2018-04-16T22:43:25.241Z,0.00
2018-04-16T22:44:25.232Z,0.00
2018-04-16T22:45:25.224Z,0.00
2018-04-16T22:46:25.216Z,0.00
2018-04-16T22:47:25.212Z,0.00
2018-04-16T22:48:25.199Z,0.00
2018-04-16T22:49:25.191Z,0.00
2018-04-16T22:50:25.183Z,0.00
2018-04-16T22:51:25.173Z,0.00
2018-04-16T22:52:25.167Z,0.00
2018-04-16T22:53:25.158Z,0.00
2018-04-16T22:54:25.171Z,0.00
2018-04-16T22:55:25.142Z,0.00
2018-04-16T22:56:25.133Z,0.00
2018-04-16T22:57:25.124Z,0.00
2018-04-16T22:58:25.116Z,0.00
2018-04-16T22:59:25.127Z,0.00
2018-04-16T23:00:25.098Z,0.00
2018-04-16T23:01:25.091Z,0.00
2018-04-16T23:02:25.084Z,0.00
2018-04-16T23:03:25.076Z,0.00
2018-04-16T23:04:25.165Z,0.00
2018-04-16T23:05:25.057Z,0.00
2018-04-16T23:06:25.052Z,0.00
2018-04-16T23:07:25.040Z,0.00
2018-04-16T23:08:25.031Z,0.00
2018-04-16T23:09:25.036Z,0.00
2018-04-16T23:10:25.114Z,0.00
2018-04-16T23:11:25.006Z,0.00
2018-04-16T23:12:24.997Z,0.00
2018-04-16T23:13:24.988Z,0.00
2018-04-16T23:14:24.980Z,0.00
2018-04-16T23:15:24.972Z,0.00
2018-04-16T23:16:24.961Z,0.00
2018-04-16T23:17:24.955Z,0.00
2018-04-16T23:18:24.946Z,0.00
2018-04-16T23:19:24.943Z,0.00
2018-04-16T23:20:24.928Z,0.00
2018-04-16T23:21:24.919Z,0.00
2018-04-16T23:22:24.913Z,0.00
2018-04-16T23:23:24.904Z,0.00
2018-04-16T23:24:24.894Z,0.00
2018-04-16T23:25:24.886Z,0.00
2018-04-16T23:26:24.877Z,0.00
2018-04-16T23:27:24.868Z,0.00
2018-04-16T23:28:24.859Z,0.00
2018-04-16T23:29:24.855Z,0.00
2018-04-16T23:30:24.841Z,0.00
2018-04-16T23:31:24.833Z,0.00
2018-04-16T23:32:24.824Z,0.00
2018-04-16T23:33:24.815Z,0.00
2018-04-16T23:34:24.913Z,0.00
2018-04-16T23:35:24.799Z,0.00
2018-04-16T23:36:24.788Z,0.00
2018-04-16T23:37:24.783Z,0.00
2018-04-16T23:38:24.776Z,0.00
2018-04-16T23:39:24.772Z,0.00
2018-04-16T23:40:24.756Z,0.00
2018-04-16T23:41:24.747Z,0.00
2018-04-16T23:42:24.739Z,0.00
2018-04-16T23:43:24.730Z,0.00
2018-04-16T23:44:24.721Z,0.00
2018-04-16T23:45:24.713Z,0.00
2018-04-16T23:46:24.806Z,0.00
2018-04-16T23:47:24.698Z,0.00
2018-04-16T23:48:24.687Z,0.00
2018-04-16T23:49:24.684Z,0.00
2018-04-16T23:50:24.673Z,0.00
2018-04-16T23:51:24.662Z,0.00
2018-04-16T23:52:24.754Z,0.00
2018-04-16T23:53:24.649Z,0.00
2018-04-16T23:54:24.638Z,0.00
2018-04-16T23:55:24.626Z,0.00
2018-04-16T23:56:24.617Z,0.00
2018-04-16T23:57:24.611Z,0.00
2018-04-16T23:58:24.604Z,0.00
2018-04-16T23:59:24.594Z,0.00
